Time;durP1;ratioP1;P1;durP2;ratioP2;P2;SDS_P1;SDS_P2;PMS_P1;PMS_P2;Temp;Humidity;BMP_temperature;BMP_pressure;BME280_temperature;BME280_humidity;BME280_pressure;Samples;Min_cycle;Max_cycle;Signal;HPM_P1;HPM_P2
2023/07/20 00:02:23;;;;;;;11.60;10.50;;;;;;;-128.00;-1.00;-1.00;105816;1253;1004508;-71
2023/07/20 00:04:50;;;;;;;11.20;10.00;;;;;;;-128.00;-1.00;-1.00;105751;1254;1005597;-70
2023/07/20 00:07:16;;;;;;;10.30;9.30;;;;;;;-128.00;-1.00;-1.00;105817;1253;1003510;-70
2023/07/20 00:09:43;;;;;;;12.30;10.10;;;;;;;-128.00;-1.00;-1.00;105836;1253;1003346;-70
2023/07/20 00:12:09;;;;;;;12.80;9.60;;;;;;;-128.00;-1.00;-1.00;105555;1253;1004116;-70
2023/07/20 00:14:36;;;;;;;11.80;9.50;;;;;;;-128.00;-1.00;-1.00;105793;1253;1004627;-70
2023/07/20 00:17:02;;;;;;;11.30;10.10;;;;;;;-128.00;-1.00;-1.00;105524;1253;1004674;-70
2023/07/20 00:19:29;;;;;;;12.80;11.20;;;;;;;-128.00;-1.00;-1.00;105800;1253;1004709;-70
2023/07/20 00:21:56;;;;;;;12.30;10.30;;;;;;;-128.00;-1.00;-1.00;105790;1253;1004749;-71
2023/07/20 00:24:23;;;;;;;16.10;10.40;;;;;;;-128.00;-1.00;-1.00;105789;1254;1004009;-71
2023/07/20 00:26:49;;;;;;;11.50;9.70;;;;;;;-128.00;-1.00;-1.00;105799;1253;1004227;-70
2023/07/20 00:29:16;;;;;;;13.70;10.50;;;;;;;-128.00;-1.00;-1.00;105786;1254;1004434;-71
2023/07/20 00:31:43;;;;;;;12.30;9.30;;;;;;;-128.00;-1.00;-1.00;105827;1253;1004388;-71
2023/07/20 00:34:09;;;;;;;22.40;16.40;;;;;;;-128.00;-1.00;-1.00;105741;1253;1003844;-70
2023/07/20 00:36:36;;;;;;;24.10;18.70;;;;;;;-128.00;-1.00;-1.00;105799;1253;1004532;-71
2023/07/20 00:39:03;;;;;;;14.10;10.20;;;;;;;-128.00;-1.00;-1.00;105810;1253;1003889;-71
2023/07/20 00:41:29;;;;;;;9.80;7.40;;;;;;;-128.00;-1.00;-1.00;105829;1254;1004565;-71
2023/07/20 00:43:56;;;;;;;8.60;6.20;;;;;;;-128.00;-1.00;-1.00;105477;1253;1003573;-71
2023/07/20 00:46:25;;;;;;;9.10;6.30;;;;;;;-128.00;-1.00;-1.00;105770;1253;1004344;-71
2023/07/20 00:48:51;;;;;;;6.80;6.10;;;;;;;-128.00;-1.00;-1.00;105752;1254;1046817;-71
2023/07/20 00:51:18;;;;;;;9.30;6.40;;;;;;;-128.00;-1.00;-1.00;105798;1254;1005199;-71
2023/07/20 00:53:45;;;;;;;7.50;5.20;;;;;;;-128.00;-1.00;-1.00;105828;1253;1003997;-71
2023/07/20 00:56:12;;;;;;;5.70;5.20;;;;;;;-128.00;-1.00;-1.00;105796;1253;1004190;-71
2023/07/20 00:58:38;;;;;;;5.40;4.90;;;;;;;-128.00;-1.00;-1.00;105754;1253;1003528;-71
2023/07/20 01:01:05;;;;;;;7.40;4.90;;;;;;;-128.00;-1.00;-1.00;105795;1253;1003965;-71
2023/07/20 01:03:31;;;;;;;8.00;5.40;;;;;;;-128.00;-1.00;-1.00;105807;1254;1003284;-71
2023/07/20 01:06:30;;;;;;;6.30;5.20;;;;;;;-128.00;-1.00;-1.00;105816;1254;1004373;-71
2023/07/20 01:09:13;;;;;;;7.40;4.80;;;;;;;-128.00;-1.00;-1.00;105347;1257;1055932;-71
2023/07/20 01:12:04;;;;;;;9.30;5.50;;;;;;;-128.00;-1.00;-1.00;105338;1257;1059746;-71
2023/07/20 01:14:32;;;;;;;7.80;5.00;;;;;;;-128.00;-1.00;-1.00;105303;1257;1046811;-71
2023/07/20 01:16:58;;;;;;;5.50;4.00;;;;;;;-128.00;-1.00;-1.00;105379;1257;1005003;-71
2023/07/20 01:19:25;;;;;;;5.50;3.70;;;;;;;-128.00;-1.00;-1.00;105287;1257;1004722;-71
2023/07/20 01:22:09;;;;;;;5.90;4.00;;;;;;;-128.00;-1.00;-1.00;105343;1257;1004233;-71
2023/07/20 01:25:12;;;;;;;4.70;3.70;;;;;;;-128.00;-1.00;-1.00;105189;1257;1059101;-71
2023/07/20 01:27:57;;;;;;;4.20;3.40;;;;;;;-128.00;-1.00;-1.00;105329;1257;1046936;-71
2023/07/20 01:30:27;;;;;;;8.20;4.10;;;;;;;-128.00;-1.00;-1.00;105357;1257;1047054;-71
2023/07/20 01:32:56;;;;;;;5.30;3.60;;;;;;;-128.00;-1.00;-1.00;105383;1257;1060520;-71
2023/07/20 01:35:29;;;;;;;3.60;3.30;;;;;;;-128.00;-1.00;-1.00;105333;1257;1055747;-71
2023/07/20 01:37:57;;;;;;;3.80;3.00;;;;;;;-128.00;-1.00;-1.00;105312;1257;1058953;-71
2023/07/20 01:40:25;;;;;;;5.20;3.30;;;;;;;-128.00;-1.00;-1.00;105308;1257;1045360;-71
2023/07/20 01:42:52;;;;;;;3.70;3.30;;;;;;;-128.00;-1.00;-1.00;105334;1257;1004003;-71
2023/07/20 01:45:19;;;;;;;4.00;3.60;;;;;;;-128.00;-1.00;-1.00;105387;1252;1003803;-71
2023/07/20 01:47:46;;;;;;;4.80;3.30;;;;;;;-128.00;-1.00;-1.00;105780;1253;1004723;-71
2023/07/20 01:50:12;;;;;;;4.30;3.90;;;;;;;-128.00;-1.00;-1.00;105769;1254;1005147;-71
2023/07/20 01:52:38;;;;;;;3.80;3.50;;;;;;;-128.00;-1.00;-1.00;105812;1253;1003805;-71
2023/07/20 01:55:05;;;;;;;3.80;3.30;;;;;;;-128.00;-1.00;-1.00;105843;1254;1003181;-71
2023/07/20 01:57:32;;;;;;;4.30;3.40;;;;;;;-128.00;-1.00;-1.00;105763;1253;1004748;-71
2023/07/20 01:59:58;;;;;;;4.70;3.70;;;;;;;-128.00;-1.00;-1.00;105813;1254;1004125;-71
2023/07/20 02:02:28;;;;;;;5.20;3.70;;;;;;;-128.00;-1.00;-1.00;105784;1253;1003863;-71
2023/07/20 02:04:54;;;;;;;5.30;3.90;;;;;;;-128.00;-1.00;-1.00;105775;1254;1046042;-71
2023/07/20 02:07:21;;;;;;;5.10;3.60;;;;;;;-128.00;-1.00;-1.00;105836;1253;1004733;-71
2023/07/20 02:09:47;;;;;;;4.50;3.70;;;;;;;-128.00;-1.00;-1.00;105779;1253;1003848;-71
2023/07/20 02:12:14;;;;;;;6.60;3.90;;;;;;;-128.00;-1.00;-1.00;105764;1253;1004690;-72
2023/07/20 02:14:41;;;;;;;4.20;3.80;;;;;;;-128.00;-1.00;-1.00;105767;1253;1004660;-71
2023/07/20 02:17:10;;;;;;;4.30;3.80;;;;;;;-128.00;-1.00;-1.00;105780;1252;1003348;-71
2023/07/20 02:19:37;;;;;;;5.90;4.10;;;;;;;-128.00;-1.00;-1.00;105774;1253;1046926;-71
2023/07/20 02:22:04;;;;;;;7.00;4.10;;;;;;;-128.00;-1.00;-1.00;105797;1253;1004137;-71
2023/07/20 02:24:30;;;;;;;8.40;4.30;;;;;;;-128.00;-1.00;-1.00;105574;1253;1004240;-71
2023/07/20 02:26:57;;;;;;;3.80;3.50;;;;;;;-128.00;-1.00;-1.00;105762;1252;1004354;-71
2023/07/20 02:29:23;;;;;;;5.20;4.50;;;;;;;-128.00;-1.00;-1.00;105812;1253;1004271;-71
2023/07/20 02:31:50;;;;;;;8.90;6.10;;;;;;;-128.00;-1.00;-1.00;105807;1254;1004683;-71
2023/07/20 02:34:16;;;;;;;11.90;7.90;;;;;;;-128.00;-1.00;-1.00;105538;1253;1005069;-71
2023/07/20 02:36:43;;;;;;;13.50;8.70;;;;;;;-128.00;-1.00;-1.00;105830;1253;1004126;-71
2023/07/20 02:39:10;;;;;;;12.20;8.80;;;;;;;-128.00;-1.00;-1.00;105785;1253;1003645;-71
2023/07/20 02:41:36;;;;;;;10.90;7.40;;;;;;;-128.00;-1.00;-1.00;105742;1254;1004300;-71
2023/07/20 02:44:03;;;;;;;9.80;6.60;;;;;;;-128.00;-1.00;-1.00;105794;1253;1004437;-71
2023/07/20 02:46:30;;;;;;;8.80;5.90;;;;;;;-128.00;-1.00;-1.00;105563;1253;1004203;-71
2023/07/20 02:48:56;;;;;;;6.20;5.30;;;;;;;-128.00;-1.00;-1.00;105821;1253;1004265;-71
2023/07/20 02:51:23;;;;;;;9.60;5.60;;;;;;;-128.00;-1.00;-1.00;105771;1253;1004452;-71
2023/07/20 02:53:49;;;;;;;5.70;5.00;;;;;;;-128.00;-1.00;-1.00;105775;1254;1003658;-71
2023/07/20 02:56:17;;;;;;;4.90;4.00;;;;;;;-128.00;-1.00;-1.00;105779;1253;1003895;-71
2023/07/20 02:58:45;;;;;;;5.20;4.10;;;;;;;-128.00;-1.00;-1.00;105746;1253;1004227;-71
2023/07/20 03:01:12;;;;;;;5.00;4.00;;;;;;;-128.00;-1.00;-1.00;105796;1253;1005489;-71
2023/07/20 03:03:38;;;;;;;5.60;4.20;;;;;;;-128.00;-1.00;-1.00;105772;1252;1005161;-71
2023/07/20 03:06:05;;;;;;;5.40;3.90;;;;;;;-128.00;-1.00;-1.00;105775;1252;1004697;-71
2023/07/20 03:08:32;;;;;;;4.50;3.40;;;;;;;-128.00;-1.00;-1.00;105780;1253;1003291;-71
2023/07/20 03:10:58;;;;;;;4.00;3.60;;;;;;;-128.00;-1.00;-1.00;105566;1254;1004810;-71
2023/07/20 03:13:25;;;;;;;5.90;3.50;;;;;;;-128.00;-1.00;-1.00;105806;1253;1005173;-71
2023/07/20 03:15:52;;;;;;;5.40;3.80;;;;;;;-128.00;-1.00;-1.00;105771;1253;1005008;-71
2023/07/20 03:18:19;;;;;;;5.40;3.20;;;;;;;-128.00;-1.00;-1.00;105783;1253;1004539;-71
2023/07/20 03:20:46;;;;;;;5.50;3.50;;;;;;;-128.00;-1.00;-1.00;105679;1253;1003390;-71
2023/07/20 03:23:12;;;;;;;5.10;3.30;;;;;;;-128.00;-1.00;-1.00;105853;1253;1004767;-71
2023/07/20 03:25:39;;;;;;;7.40;4.00;;;;;;;-128.00;-1.00;-1.00;105845;1253;1003448;-71
2023/07/20 03:28:05;;;;;;;5.90;3.50;;;;;;;-128.00;-1.00;-1.00;105762;1253;1004151;-71
2023/07/20 03:30:32;;;;;;;3.80;3.30;;;;;;;-128.00;-1.00;-1.00;105802;1253;1004570;-71
2023/07/20 03:32:58;;;;;;;5.70;3.40;;;;;;;-128.00;-1.00;-1.00;105774;1253;1004623;-71
2023/07/20 03:35:25;;;;;;;4.30;3.40;;;;;;;-128.00;-1.00;-1.00;105790;1253;1004641;-71
2023/07/20 03:37:51;;;;;;;6.40;3.40;;;;;;;-128.00;-1.00;-1.00;105792;1253;1003545;-71
2023/07/20 03:40:18;;;;;;;3.20;2.90;;;;;;;-128.00;-1.00;-1.00;105555;1256;1003576;-71
2023/07/20 03:42:44;;;;;;;5.60;3.50;;;;;;;-128.00;-1.00;-1.00;105761;1253;1004567;-71
2023/07/20 03:45:11;;;;;;;4.50;3.30;;;;;;;-128.00;-1.00;-1.00;105770;1252;1004169;-71
2023/07/20 03:47:37;;;;;;;4.90;3.30;;;;;;;-128.00;-1.00;-1.00;105660;1256;1003542;-71
2023/07/20 03:50:09;;;;;;;6.30;3.70;;;;;;;-128.00;-1.00;-1.00;105839;1253;1003890;-71
2023/07/20 03:52:36;;;;;;;5.70;3.20;;;;;;;-128.00;-1.00;-1.00;105794;1252;1059354;-71
2023/07/20 03:55:03;;;;;;;5.70;3.10;;;;;;;-128.00;-1.00;-1.00;105784;1253;1003940;-71
2023/07/20 03:57:32;;;;;;;4.20;3.10;;;;;;;-128.00;-1.00;-1.00;105522;1253;1003852;-71
2023/07/20 03:59:58;;;;;;;6.40;3.20;;;;;;;-128.00;-1.00;-1.00;105825;1253;1060844;-71
2023/07/20 04:02:25;;;;;;;6.10;3.50;;;;;;;-128.00;-1.00;-1.00;105778;1253;1004357;-71
2023/07/20 04:04:52;;;;;;;4.00;3.40;;;;;;;-128.00;-1.00;-1.00;105774;1253;1003660;-71
2023/07/20 04:07:18;;;;;;;4.80;3.70;;;;;;;-128.00;-1.00;-1.00;105498;1253;1004066;-71
2023/07/20 04:09:45;;;;;;;5.90;3.10;;;;;;;-128.00;-1.00;-1.00;105775;1252;1004369;-71
2023/07/20 04:12:11;;;;;;;5.20;3.00;;;;;;;-128.00;-1.00;-1.00;105793;1253;1004596;-71
2023/07/20 04:14:38;;;;;;;5.60;3.30;;;;;;;-128.00;-1.00;-1.00;105837;1253;1003593;-71
2023/07/20 04:17:05;;;;;;;3.40;3.10;;;;;;;-128.00;-1.00;-1.00;105801;1253;1004378;-71
2023/07/20 04:19:31;;;;;;;4.70;2.90;;;;;;;-128.00;-1.00;-1.00;105791;1253;1004667;-71
2023/07/20 04:21:58;;;;;;;3.70;3.40;;;;;;;-128.00;-1.00;-1.00;105817;1253;1003747;-71
2023/07/20 04:24:24;;;;;;;4.70;3.30;;;;;;;-128.00;-1.00;-1.00;105819;1253;1003743;-71
2023/07/20 04:26:51;;;;;;;5.30;3.00;;;;;;;-128.00;-1.00;-1.00;105776;1252;1003922;-72
2023/07/20 04:29:17;;;;;;;5.40;2.90;;;;;;;-128.00;-1.00;-1.00;105768;1253;1003580;-71
2023/07/20 04:31:44;;;;;;;4.60;3.20;;;;;;;-128.00;-1.00;-1.00;105816;1253;1005462;-71
2023/07/20 04:34:10;;;;;;;4.10;3.30;;;;;;;-128.00;-1.00;-1.00;105610;1253;1004967;-71
2023/07/20 04:36:37;;;;;;;4.80;3.30;;;;;;;-128.00;-1.00;-1.00;105789;1253;1003593;-71
2023/07/20 04:39:04;;;;;;;4.00;2.90;;;;;;;-128.00;-1.00;-1.00;105803;1253;1004790;-72
2023/07/20 04:41:30;;;;;;;4.50;3.30;;;;;;;-128.00;-1.00;-1.00;105844;1253;1003842;-72
2023/07/20 04:43:57;;;;;;;4.60;3.20;;;;;;;-128.00;-1.00;-1.00;105805;1253;1004549;-72
2023/07/20 04:46:23;;;;;;;3.30;2.90;;;;;;;-128.00;-1.00;-1.00;105792;1253;1004748;-72
2023/07/20 04:48:50;;;;;;;4.50;3.20;;;;;;;-128.00;-1.00;-1.00;105807;1253;1004386;-72
2023/07/20 04:51:20;;;;;;;4.20;3.00;;;;;;;-128.00;-1.00;-1.00;105808;1253;1004054;-72
2023/07/20 04:53:47;;;;;;;3.80;3.10;;;;;;;-128.00;-1.00;-1.00;105821;1253;1060346;-71
2023/07/20 04:56:13;;;;;;;6.00;3.50;;;;;;;-128.00;-1.00;-1.00;105748;1253;1004246;-71
2023/07/20 04:58:40;;;;;;;6.60;4.00;;;;;;;-128.00;-1.00;-1.00;105811;1252;1004890;-71
2023/07/20 05:01:08;;;;;;;5.70;4.40;;;;;;;-128.00;-1.00;-1.00;105533;1253;1004668;-71
2023/07/20 05:03:34;;;;;;;7.50;4.50;;;;;;;-128.00;-1.00;-1.00;105812;1253;1004597;-71
2023/07/20 05:06:01;;;;;;;5.50;3.70;;;;;;;-128.00;-1.00;-1.00;105758;1253;1004169;-72
2023/07/20 05:08:27;;;;;;;7.10;3.80;;;;;;;-128.00;-1.00;-1.00;105746;1253;1004841;-71
2023/07/20 05:10:54;;;;;;;4.40;3.40;;;;;;;-128.00;-1.00;-1.00;105840;1253;1004367;-71
2023/07/20 05:13:20;;;;;;;3.60;3.30;;;;;;;-128.00;-1.00;-1.00;105832;1253;1004289;-71
2023/07/20 05:15:51;;;;;;;4.00;3.10;;;;;;;-128.00;-1.00;-1.00;105854;1252;1004533;-72
2023/07/20 05:18:19;;;;;;;6.90;3.00;;;;;;;-128.00;-1.00;-1.00;105794;1253;1059480;-72
2023/07/20 05:20:50;;;;;;;3.80;3.40;;;;;;;-128.00;-1.00;-1.00;105803;1252;1045386;-71
2023/07/20 05:23:18;;;;;;;5.50;3.10;;;;;;;-128.00;-1.00;-1.00;105847;1253;1047389;-72
2023/07/20 05:25:44;;;;;;;4.70;3.00;;;;;;;-128.00;-1.00;-1.00;105663;1253;1003613;-74
2023/07/20 05:28:11;;;;;;;3.90;2.60;;;;;;;-128.00;-1.00;-1.00;105823;1253;1004139;-73
2023/07/20 05:30:37;;;;;;;5.20;3.50;;;;;;;-128.00;-1.00;-1.00;105612;1253;1003442;-72
2023/07/20 05:33:04;;;;;;;5.60;2.80;;;;;;;-128.00;-1.00;-1.00;105763;1252;1003934;-72
2023/07/20 05:35:30;;;;;;;4.50;2.80;;;;;;;-128.00;-1.00;-1.00;105543;1253;1004777;-72
2023/07/20 05:37:57;;;;;;;3.30;3.00;;;;;;;-128.00;-1.00;-1.00;105657;1253;1003635;-72
2023/07/20 05:40:23;;;;;;;2.90;2.70;;;;;;;-128.00;-1.00;-1.00;105831;1253;1004709;-71
2023/07/20 05:42:51;;;;;;;3.80;2.80;;;;;;;-128.00;-1.00;-1.00;105743;1253;1004875;-73
2023/07/20 05:45:18;;;;;;;5.00;2.90;;;;;;;-128.00;-1.00;-1.00;105573;1252;1004315;-72
2023/07/20 05:47:45;;;;;;;4.10;3.20;;;;;;;-128.00;-1.00;-1.00;105794;1253;1004065;-72
2023/07/20 05:50:11;;;;;;;4.00;3.10;;;;;;;-128.00;-1.00;-1.00;105793;1253;1004071;-72
2023/07/20 05:52:38;;;;;;;4.90;2.70;;;;;;;-128.00;-1.00;-1.00;105812;1253;1004667;-70
2023/07/20 05:55:06;;;;;;;3.30;2.70;;;;;;;-128.00;-1.00;-1.00;105777;1253;1003334;-72
2023/07/20 05:57:33;;;;;;;3.50;3.10;;;;;;;-128.00;-1.00;-1.00;105754;1252;1003670;-72
2023/07/20 05:59:59;;;;;;;4.10;3.60;;;;;;;-128.00;-1.00;-1.00;105776;1252;1004645;-72
2023/07/20 06:02:25;;;;;;;3.10;2.70;;;;;;;-128.00;-1.00;-1.00;105826;1252;1004729;-72
2023/07/20 06:04:52;;;;;;;3.20;2.60;;;;;;;-128.00;-1.00;-1.00;105831;1253;1004435;-72
2023/07/20 06:07:18;;;;;;;3.70;2.70;;;;;;;-128.00;-1.00;-1.00;105772;1253;1003298;-71
2023/07/20 06:09:45;;;;;;;3.20;2.80;;;;;;;-128.00;-1.00;-1.00;105792;1252;1004838;-72
2023/07/20 06:12:11;;;;;;;3.30;2.70;;;;;;;-128.00;-1.00;-1.00;105836;1253;1005086;-72
2023/07/20 06:14:38;;;;;;;5.20;3.00;;;;;;;-128.00;-1.00;-1.00;105806;1253;1003645;-72
2023/07/20 06:17:05;;;;;;;3.90;3.10;;;;;;;-128.00;-1.00;-1.00;105489;1254;1003778;-72
2023/07/20 06:19:31;;;;;;;3.60;2.90;;;;;;;-128.00;-1.00;-1.00;105781;1252;1004802;-72
2023/07/20 06:21:58;;;;;;;3.30;2.70;;;;;;;-128.00;-1.00;-1.00;105786;1253;1004772;-71
2023/07/20 06:24:24;;;;;;;3.40;2.60;;;;;;;-128.00;-1.00;-1.00;105577;1253;1004138;-71
2023/07/20 06:26:51;;;;;;;3.90;2.80;;;;;;;-128.00;-1.00;-1.00;105851;1252;1004232;-72
2023/07/20 06:29:17;;;;;;;3.70;2.90;;;;;;;-128.00;-1.00;-1.00;105846;1252;1004190;-72
2023/07/20 06:31:44;;;;;;;3.60;2.60;;;;;;;-128.00;-1.00;-1.00;105788;1252;1004401;-72
2023/07/20 06:34:10;;;;;;;2.80;2.60;;;;;;;-128.00;-1.00;-1.00;105803;1252;1003856;-72
2023/07/20 06:36:38;;;;;;;3.80;2.90;;;;;;;-128.00;-1.00;-1.00;105848;1252;1004556;-71
2023/07/20 06:39:05;;;;;;;4.30;2.60;;;;;;;-128.00;-1.00;-1.00;105785;1253;1003896;-72
2023/07/20 06:41:31;;;;;;;3.00;2.60;;;;;;;-128.00;-1.00;-1.00;105803;1253;1004766;-72
2023/07/20 06:43:58;;;;;;;3.00;2.70;;;;;;;-128.00;-1.00;-1.00;105810;1253;1004900;-72
2023/07/20 06:46:26;;;;;;;3.60;3.10;;;;;;;-128.00;-1.00;-1.00;105620;1256;1004313;-72
2023/07/20 06:48:53;;;;;;;3.20;2.80;;;;;;;-128.00;-1.00;-1.00;105503;1252;1004453;-72
2023/07/20 06:51:19;;;;;;;2.80;2.60;;;;;;;-128.00;-1.00;-1.00;105743;1253;1004314;-72
2023/07/20 06:53:46;;;;;;;3.70;2.50;;;;;;;-128.00;-1.00;-1.00;105815;1252;1004507;-73
2023/07/20 06:56:13;;;;;;;4.90;2.60;;;;;;;-128.00;-1.00;-1.00;105803;1253;1004708;-73
2023/07/20 06:58:39;;;;;;;2.80;2.00;;;;;;;-128.00;-1.00;-1.00;105763;1252;1004602;-72
2023/07/20 07:01:07;;;;;;;3.10;2.50;;;;;;;-128.00;-1.00;-1.00;105788;1252;1004255;-73
2023/07/20 07:03:34;;;;;;;3.10;2.40;;;;;;;-128.00;-1.00;-1.00;105839;1252;1004200;-72
2023/07/20 07:06:01;;;;;;;3.10;2.20;;;;;;;-128.00;-1.00;-1.00;105848;1253;1004326;-73
2023/07/20 07:08:27;;;;;;;2.90;2.70;;;;;;;-128.00;-1.00;-1.00;105777;1253;1004412;-73
2023/07/20 07:10:54;;;;;;;2.40;2.20;;;;;;;-128.00;-1.00;-1.00;105495;1252;1003855;-71
2023/07/20 07:13:20;;;;;;;2.40;1.90;;;;;;;-128.00;-1.00;-1.00;105808;1253;1004970;-72
2023/07/20 07:15:47;;;;;;;2.40;1.90;;;;;;;-128.00;-1.00;-1.00;105819;1252;1004186;-71
2023/07/20 07:18:14;;;;;;;2.30;2.00;;;;;;;-128.00;-1.00;-1.00;105819;1253;1004994;-71
2023/07/20 07:20:40;;;;;;;1.60;1.50;;;;;;;-128.00;-1.00;-1.00;105772;1252;1004024;-72
2023/07/20 07:23:07;;;;;;;2.00;1.60;;;;;;;-128.00;-1.00;-1.00;105796;1253;1004886;-77
2023/07/20 07:25:33;;;;;;;1.60;1.50;;;;;;;-128.00;-1.00;-1.00;105782;1253;1004264;-77
2023/07/20 07:28:00;;;;;;;1.70;1.40;;;;;;;-128.00;-1.00;-1.00;105775;1252;1004579;-77
2023/07/20 07:30:26;;;;;;;1.20;1.10;;;;;;;-128.00;-1.00;-1.00;105815;1253;1004008;-78
2023/07/20 07:32:53;;;;;;;4.30;1.70;;;;;;;-128.00;-1.00;-1.00;105753;1252;1004658;-78
2023/07/20 07:35:19;;;;;;;1.60;1.50;;;;;;;-128.00;-1.00;-1.00;105784;1252;1004495;-77
2023/07/20 07:37:46;;;;;;;2.00;1.70;;;;;;;-128.00;-1.00;-1.00;105868;1252;1005193;-77
2023/07/20 07:40:14;;;;;;;1.90;1.40;;;;;;;-128.00;-1.00;-1.00;105848;1253;1004634;-76
2023/07/20 07:42:41;;;;;;;1.70;1.60;;;;;;;-128.00;-1.00;-1.00;105791;1253;1003223;-77
2023/07/20 07:45:08;;;;;;;4.10;1.30;;;;;;;-128.00;-1.00;-1.00;105756;1252;1004640;-77
2023/07/20 07:47:36;;;;;;;2.20;1.50;;;;;;;-128.00;-1.00;-1.00;105799;1252;1044994;-77
2023/07/20 07:50:03;;;;;;;2.50;1.60;;;;;;;-128.00;-1.00;-1.00;105812;1252;1004408;-78
2023/07/20 07:52:29;;;;;;;2.30;1.50;;;;;;;-128.00;-1.00;-1.00;105512;1252;1003424;-78
2023/07/20 07:54:56;;;;;;;2.10;1.90;;;;;;;-128.00;-1.00;-1.00;105771;1252;1004805;-78
2023/07/20 07:57:22;;;;;;;1.70;1.40;;;;;;;-128.00;-1.00;-1.00;105723;1252;1003748;-77
2023/07/20 07:59:49;;;;;;;1.70;1.60;;;;;;;-128.00;-1.00;-1.00;105818;1252;1004789;-77
2023/07/20 08:02:15;;;;;;;1.10;1.10;;;;;;;-128.00;-1.00;-1.00;105764;1252;1004165;-78
2023/07/20 08:04:42;;;;;;;1.50;1.40;;;;;;;-128.00;-1.00;-1.00;105806;1252;1003566;-78
2023/07/20 08:07:08;;;;;;;3.10;1.40;;;;;;;-128.00;-1.00;-1.00;105803;1253;1005340;-77
2023/07/20 08:09:35;;;;;;;3.30;1.40;;;;;;;-128.00;-1.00;-1.00;105822;1252;1004130;-77
2023/07/20 08:12:01;;;;;;;1.60;1.20;;;;;;;-128.00;-1.00;-1.00;105795;1252;1004148;-76
2023/07/20 08:14:28;;;;;;;1.30;1.20;;;;;;;-128.00;-1.00;-1.00;105801;1252;1004691;-77
2023/07/20 08:16:54;;;;;;;1.50;1.30;;;;;;;-128.00;-1.00;-1.00;105817;1252;1006297;-77
2023/07/20 08:19:21;;;;;;;1.60;1.50;;;;;;;-128.00;-1.00;-1.00;105645;1253;1004521;-77
2023/07/20 08:21:47;;;;;;;3.50;1.60;;;;;;;-128.00;-1.00;-1.00;105772;1253;1004076;-77
2023/07/20 08:24:14;;;;;;;2.10;1.20;;;;;;;-128.00;-1.00;-1.00;105816;1253;1004049;-77
2023/07/20 08:26:40;;;;;;;1.60;1.40;;;;;;;-128.00;-1.00;-1.00;105796;1252;1003730;-77
2023/07/20 08:29:07;;;;;;;2.40;1.40;;;;;;;-128.00;-1.00;-1.00;105817;1253;1004179;-76
2023/07/20 08:31:33;;;;;;;1.20;1.10;;;;;;;-128.00;-1.00;-1.00;105596;1253;1005086;-77
2023/07/20 08:34:00;;;;;;;1.60;1.00;;;;;;;-128.00;-1.00;-1.00;105777;1252;1004125;-76
2023/07/20 08:36:27;;;;;;;2.50;1.30;;;;;;;-128.00;-1.00;-1.00;105592;1252;1004598;-77
2023/07/20 08:38:53;;;;;;;2.90;1.50;;;;;;;-128.00;-1.00;-1.00;105796;1252;1003317;-77
2023/07/20 08:41:20;;;;;;;2.30;1.60;;;;;;;-128.00;-1.00;-1.00;105799;1252;1003651;-77
2023/07/20 08:43:48;;;;;;;1.50;1.40;;;;;;;-128.00;-1.00;-1.00;105778;1253;1003999;-77
2023/07/20 08:46:15;;;;;;;2.40;2.00;;;;;;;-128.00;-1.00;-1.00;105479;1252;1004553;-77
2023/07/20 08:48:44;;;;;;;1.40;1.30;;;;;;;-128.00;-1.00;-1.00;105653;1252;1003804;-78
2023/07/20 08:51:12;;;;;;;1.50;1.40;;;;;;;-128.00;-1.00;-1.00;105845;1252;1046409;-77
2023/07/20 08:53:39;;;;;;;1.70;1.40;;;;;;;-128.00;-1.00;-1.00;105803;1253;1062522;-78
2023/07/20 08:56:10;;;;;;;1.50;1.40;;;;;;;-128.00;-1.00;-1.00;105773;1253;1003687;-78
2023/07/20 08:58:41;;;;;;;1.60;1.50;;;;;;;-128.00;-1.00;-1.00;105799;1253;1059516;-76
2023/07/20 09:01:08;;;;;;;3.40;1.70;;;;;;;-128.00;-1.00;-1.00;105773;1253;1045261;-76
2023/07/20 09:03:34;;;;;;;2.00;1.90;;;;;;;-128.00;-1.00;-1.00;105771;1252;1004516;-76
2023/07/20 09:06:01;;;;;;;1.50;1.40;;;;;;;-128.00;-1.00;-1.00;105813;1252;1003919;-76
2023/07/20 09:08:27;;;;;;;2.20;1.30;;;;;;;-128.00;-1.00;-1.00;105850;1252;1004376;-77
2023/07/20 09:10:54;;;;;;;1.60;1.50;;;;;;;-128.00;-1.00;-1.00;105617;1253;1004786;-76
2023/07/20 09:13:20;;;;;;;3.20;1.70;;;;;;;-128.00;-1.00;-1.00;105772;1252;1004687;-76
2023/07/20 09:15:47;;;;;;;1.70;1.60;;;;;;;-128.00;-1.00;-1.00;105755;1253;1004675;-76
2023/07/20 09:18:25;;;;;;;1.70;1.50;;;;;;;-128.00;-1.00;-1.00;105825;1252;1004268;-77
2023/07/20 09:20:51;;;;;;;1.70;1.60;;;;;;;-128.00;-1.00;-1.00;105526;1253;1056350;-76
2023/07/20 09:23:18;;;;;;;3.70;1.70;;;;;;;-128.00;-1.00;-1.00;105808;1253;1004376;-77
2023/07/20 09:25:50;;;;;;;3.10;2.00;;;;;;;-128.00;-1.00;-1.00;105809;1252;1003919;-77
2023/07/20 09:28:18;;;;;;;1.60;1.50;;;;;;;-128.00;-1.00;-1.00;105837;1253;1045834;-77
2023/07/20 09:30:44;;;;;;;1.60;1.40;;;;;;;-128.00;-1.00;-1.00;105621;1253;1004534;-76
2023/07/20 09:33:19;;;;;;;2.40;1.90;;;;;;;-128.00;-1.00;-1.00;105796;1253;1004536;-77
2023/07/20 09:35:46;;;;;;;3.80;1.80;;;;;;;-128.00;-1.00;-1.00;105801;1253;1059212;-76
2023/07/20 09:38:14;;;;;;;3.50;1.50;;;;;;;-128.00;-1.00;-1.00;105548;1252;1005002;-76
2023/07/20 09:40:42;;;;;;;3.00;1.90;;;;;;;-128.00;-1.00;-1.00;105542;1252;1048315;-76
2023/07/20 09:43:09;;;;;;;2.90;1.90;;;;;;;-128.00;-1.00;-1.00;105805;1252;1004995;-76
2023/07/20 09:45:41;;;;;;;1.50;1.40;;;;;;;-128.00;-1.00;-1.00;105803;1253;1003893;-75
2023/07/20 09:48:11;;;;;;;1.70;1.40;;;;;;;-128.00;-1.00;-1.00;105670;1253;1059390;-76
2023/07/20 09:50:42;;;;;;;;;;;;;;;-128.00;-1.00;-1.00;105806;1252;1044170;-76
2023/07/20 09:53:15;;;;;;;12.60;3.40;;;;;;;-128.00;-1.00;-1.00;105860;1252;1047980;-76
2023/07/20 09:55:42;;;;;;;2.50;1.80;;;;;;;-128.00;-1.00;-1.00;105818;1253;1062009;-76
2023/07/20 09:58:09;;;;;;;2.10;1.70;;;;;;;-128.00;-1.00;-1.00;105791;1253;1004252;-76
2023/07/20 10:00:37;;;;;;;5.00;1.90;;;;;;;-128.00;-1.00;-1.00;105750;1252;1003786;-76
2023/07/20 10:03:05;;;;;;;2.60;1.90;;;;;;;-128.00;-1.00;-1.00;105790;1253;1005088;-77
2023/07/20 10:05:37;;;;;;;2.10;1.80;;;;;;;-128.00;-1.00;-1.00;105817;1252;1005108;-76
2023/07/20 10:08:06;;;;;;;1.70;1.60;;;;;;;-128.00;-1.00;-1.00;105785;1252;1061151;-76
2023/07/20 10:10:34;;;;;;;2.50;1.90;;;;;;;-128.00;-1.00;-1.00;105751;1253;1054963;-77
2023/07/20 10:13:02;;;;;;;1.60;1.50;;;;;;;-128.00;-1.00;-1.00;105800;1252;1003905;-77
2023/07/20 10:15:36;;;;;;;2.20;1.90;;;;;;;-128.00;-1.00;-1.00;105557;1256;1044877;-76
2023/07/20 10:18:06;;;;;;;2.00;1.90;;;;;;;-128.00;-1.00;-1.00;105841;1252;1046459;-76
2023/07/20 10:20:33;;;;;;;1.60;1.50;;;;;;;-128.00;-1.00;-1.00;105836;1252;1061578;-77
2023/07/20 10:23:00;;;;;;;2.60;1.60;;;;;;;-128.00;-1.00;-1.00;105457;1253;1004250;-75
2023/07/20 10:25:28;;;;;;;5.40;2.20;;;;;;;-128.00;-1.00;-1.00;105777;1252;1004082;-76
2023/07/20 10:27:56;;;;;;;2.30;2.10;;;;;;;-128.00;-1.00;-1.00;105788;1252;1004235;-76
2023/07/20 10:30:24;;;;;;;3.40;2.20;;;;;;;-128.00;-1.00;-1.00;105803;1252;1047673;-76
2023/07/20 10:32:52;;;;;;;3.40;2.20;;;;;;;-128.00;-1.00;-1.00;105739;1253;1003335;-77
2023/07/20 10:35:18;;;;;;;2.50;2.30;;;;;;;-128.00;-1.00;-1.00;105822;1252;1004370;-76
2023/07/20 10:37:49;;;;;;;6.90;2.20;;;;;;;-128.00;-1.00;-1.00;105782;1252;1003554;-75
2023/07/20 10:40:37;;;;;;;3.70;2.30;;;;;;;-128.00;-1.00;-1.00;105808;1252;1044831;-77
2023/07/20 10:43:07;;;;;;;3.60;2.60;;;;;;;-128.00;-1.00;-1.00;105818;1253;1046792;-76
2023/07/20 10:45:42;;;;;;;4.00;2.50;;;;;;;-128.00;-1.00;-1.00;105784;1253;1062366;-76
2023/07/20 10:48:16;;;;;;;3.30;2.40;;;;;;;-128.00;-1.00;-1.00;105470;1252;1056595;-77
2023/07/20 10:50:44;;;;;;;2.90;2.70;;;;;;;-128.00;-1.00;-1.00;105753;1252;1061773;-76
2023/07/20 10:53:18;;;;;;;3.40;3.00;;;;;;;-128.00;-1.00;-1.00;105829;1253;1003262;-77
2023/07/20 10:55:50;;;;;;;3.40;3.10;;;;;;;-128.00;-1.00;-1.00;105785;1253;1047254;-74
2023/07/20 10:58:17;;;;;;;3.40;3.10;;;;;;;-128.00;-1.00;-1.00;105817;1253;1061300;-76
2023/07/20 11:01:02;;;;;;;3.90;3.20;;;;;;;-128.00;-1.00;-1.00;105753;1252;1003432;-76
2023/07/20 11:03:40;;;;;;;3.60;3.30;;;;;;;-128.00;-1.00;-1.00;105802;1252;1058712;-75
2023/07/20 11:06:25;;;;;;;3.10;2.80;;;;;;;-128.00;-1.00;-1.00;105745;1252;1045845;-76
2023/07/20 11:08:56;;;;;;;4.10;2.90;;;;;;;-128.00;-1.00;-1.00;105830;1252;1046606;-76
2023/07/20 11:11:30;;;;;;;3.90;2.80;;;;;;;-128.00;-1.00;-1.00;105697;1253;1061129;-77
2023/07/20 11:14:10;;;;;;;2.60;2.40;;;;;;;-128.00;-1.00;-1.00;105809;1253;1055830;-77
2023/07/20 11:16:43;;;;;;;2.70;2.30;;;;;;;-128.00;-1.00;-1.00;105858;1253;1059111;-76
2023/07/20 11:19:18;;;;;;;2.70;2.50;;;;;;;-128.00;-1.00;-1.00;105810;1252;1043763;-76
2023/07/20 11:21:49;;;;;;;3.00;2.70;;;;;;;-128.00;-1.00;-1.00;105841;1252;1046288;-77